Observation data for Knox City on 07/20/2019      Previous  Date       Current Mesonet Observations  Soil Data  Daily Summary Page  Observations in Plain Language
KKN1 200500Z 16014G19KT 31/17 A2987 RMK A01 T03050169  RH  046%=      5-min Rain = 0
KKN1 200505Z 16014KT 30/17 A2988 RMK A01 T03040169  RH  047%=      5-min Rain = 0
KKN1 200510Z 16014G21KT 30/17 A2988 RMK A01 T03030169  RH  047%=      5-min Rain = 0
KKN1 200515Z 16013G18KT 30/17 A2988 RMK A01 T03010170  RH  047%=      5-min Rain = 0
KKN1 200520Z 16014G19KT 30/17 A2987 RMK A01 T03010170  RH  048%=      5-min Rain = 0
KKN1 200525Z 16013G18KT 30/17 A2988 RMK A01 T03000170  RH  048%=      5-min Rain = 0
KKN1 200530Z 16013G18KT 30/17 A2988 RMK A01 T02990170  RH  048%=      5-min Rain = 0
KKN1 200535Z 16014G19KT 30/17 A2987 RMK A01 T02990171  RH  048%=      5-min Rain = 0
KKN1 200540Z 17013G18KT 30/17 A2987 RMK A01 T02980171  RH  049%=      5-min Rain = 0
KKN1 200545Z 17013KT 30/17 A2987 RMK A01 T02970172  RH  049%=      5-min Rain = 0
KKN1 200550Z 17014G19KT 30/17 A2987 RMK A01 T02970172  RH  050%=      5-min Rain = 0
KKN1 200555Z 17014KT 30/17 A2987 RMK A01 T02970172  RH  050%=      5-min Rain = 0
KKN1 200600Z 17014KT 30/17 A2987 RMK A01 T02980173  RH  050%=      5-min Rain = 0
KKN1 200605Z 17014KT 30/17 A2987 RMK A01 T02970174  RH  050%=      5-min Rain = 0
KKN1 200610Z 17015KT 30/18 A2987 RMK A01 T02970175  RH  051%=      5-min Rain = 0
KKN1 200615Z 17014KT 30/18 A2987 RMK A01 T02970176  RH  051%=      5-min Rain = 0
KKN1 200620Z 17015G20KT 30/18 A2987 RMK A01 T02970177  RH  051%=      5-min Rain = 0
KKN1 200625Z 17015KT 30/18 A2987 RMK A01 T02960177  RH  051%=      5-min Rain = 0
KKN1 200630Z 17014KT 30/18 A2987 RMK A01 T02950178  RH  052%=      5-min Rain = 0
KKN1 200635Z 17015KT 30/18 A2987 RMK A01 T02960178  RH  052%=      5-min Rain = 0
KKN1 200640Z 17015KT 30/18 A2987 RMK A01 T02960178  RH  052%=      5-min Rain = 0
KKN1 200645Z 17015KT 30/18 A2987 RMK A01 T02950179  RH  052%=      5-min Rain = 0
KKN1 200650Z 17015KT 29/18 A2987 RMK A01 T02940179  RH  053%=      5-min Rain = 0
KKN1 200655Z 17016G21KT 30/18 A2987 RMK A01 T02950179  RH  053%=      5-min Rain = 0
KKN1 200700Z 17015KT 29/18 A2987 RMK A01 T02940180  RH  053%=      5-min Rain = 0
KKN1 200705Z 17016KT 29/18 A2986 RMK A01 T02930180  RH  053%=      5-min Rain = 0
KKN1 200710Z 17015G20KT 29/18 A2987 RMK A01 T02930180  RH  053%=      5-min Rain = 0
KKN1 200715Z 17014G20KT 29/18 A2987 RMK A01 T02930181  RH  054%=      5-min Rain = 0
KKN1 200720Z 17014G19KT 29/18 A2987 RMK A01 T02920181  RH  054%=      5-min Rain = 0
KKN1 200725Z 18013G19KT 29/18 A2987 RMK A01 T02920182  RH  054%=      5-min Rain = 0
KKN1 200730Z 18014KT 29/18 A2986 RMK A01 T02910182  RH  055%=      5-min Rain = 0
KKN1 200735Z 18014KT 29/18 A2986 RMK A01 T02910183  RH  055%=      5-min Rain = 0
KKN1 200740Z 18014KT 29/18 A2987 RMK A01 T02920183  RH  055%=      5-min Rain = 0
KKN1 200745Z 18015KT 29/18 A2987 RMK A01 T02930183  RH  054%=      5-min Rain = 0
KKN1 200750Z 18015G20KT 29/18 A2986 RMK A01 T02930183  RH  054%=      5-min Rain = 0
KKN1 200755Z 18014KT 29/18 A2986 RMK A01 T02930184  RH  055%=      5-min Rain = 0
KKN1 200800Z 18013G18KT 29/18 A2987 RMK A01 T02920184  RH  055%=      5-min Rain = 0
KKN1 200805Z 18013KT 29/18 A2987 RMK A01 T02920184  RH  055%=      5-min Rain = 0
KKN1 200810Z 18013G18KT 29/18 A2987 RMK A01 T02910184  RH  055%=      5-min Rain = 0
KKN1 200815Z 18013KT 29/18 A2987 RMK A01 T02900184  RH  056%=      5-min Rain = 0
KKN1 200820Z 18012KT 29/18 A2987 RMK A01 T02900184  RH  056%=      5-min Rain = 0
KKN1 200825Z 19012KT 29/18 A2987 RMK A01 T02880184  RH  056%=      5-min Rain = 0
KKN1 200830Z 19013G18KT 29/18 A2987 RMK A01 T02880184  RH  056%=      5-min Rain = 0
KKN1 200835Z 20013G19KT 29/19 A2987 RMK A01 T02880185  RH  056%=      5-min Rain = 0
KKN1 200840Z 20012KT 29/19 A2987 RMK A01 T02870185  RH  057%=      5-min Rain = 0
KKN1 200845Z 20011KT 29/19 A2987 RMK A01 T02860186  RH  058%=      5-min Rain = 0
KKN1 200850Z 20012KT 29/19 A2987 RMK A01 T02860186  RH  058%=      5-min Rain = 0
KKN1 200855Z 20011KT 29/19 A2987 RMK A01 T02850187  RH  058%=      5-min Rain = 0
KKN1 200900Z 20011KT 28/19 A2987 RMK A01 T02830187  RH  059%=      5-min Rain = 0
KKN1 200905Z 20011KT 28/19 A2987 RMK A01 T02830188  RH  059%=      5-min Rain = 0
KKN1 200910Z 20011KT 28/19 A2987 RMK A01 T02820188  RH  060%=      5-min Rain = 0
KKN1 200915Z 20010KT 28/19 A2987 RMK A01 T02810189  RH  061%=      5-min Rain = 0
KKN1 200920Z 20010KT 28/19 A2988 RMK A01 T02810190  RH  061%=      5-min Rain = 0
KKN1 200925Z 20011KT 28/19 A2988 RMK A01 T02810190  RH  061%=      5-min Rain = 0
KKN1 200930Z 20011KT 28/19 A2988 RMK A01 T02790190  RH  062%=      5-min Rain = 0
KKN1 200935Z 19010KT 28/19 A2988 RMK A01 T02780190  RH  062%=      5-min Rain = 0
KKN1 200940Z 20010KT 28/19 A2988 RMK A01 T02770190  RH  062%=      5-min Rain = 0
KKN1 200945Z 20010KT 28/19 A2988 RMK A01 T02770190  RH  063%=      5-min Rain = 0
KKN1 200950Z 19009KT 28/19 A2988 RMK A01 T02760191  RH  063%=      5-min Rain = 0
KKN1 200955Z 19010KT 28/19 A2988 RMK A01 T02750191  RH  064%=      5-min Rain = 0
KKN1 201000Z 19010KT 27/19 A2988 RMK A01 T02740192  RH  064%=      5-min Rain = 0
KKN1 201005Z 19010KT 27/19 A2988 RMK A01 T02730192  RH  065%=      5-min Rain = 0
KKN1 201010Z 19011KT 27/19 A2987 RMK A01 T02730193  RH  065%=      5-min Rain = 0
KKN1 201015Z 19012KT 27/19 A2988 RMK A01 T02720193  RH  066%=      5-min Rain = 0
KKN1 201020Z 19013KT 27/19 A2988 RMK A01 T02720194  RH  066%=      5-min Rain = 0
KKN1 201025Z 19013KT 27/20 A2988 RMK A01 T02720195  RH  066%=      5-min Rain = 0
KKN1 201030Z 19014KT 27/20 A2987 RMK A01 T02710196  RH  067%=      5-min Rain = 0
KKN1 201035Z 19013KT 27/20 A2987 RMK A01 T02710196  RH  067%=      5-min Rain = 0
KKN1 201040Z 19012KT 27/20 A2988 RMK A01 T02700197  RH  068%=      5-min Rain = 0
KKN1 201045Z 18012KT 27/20 A2988 RMK A01 T02690198  RH  069%=      5-min Rain = 0
KKN1 201050Z 18012KT 27/20 A2988 RMK A01 T02680198  RH  069%=      5-min Rain = 0
KKN1 201055Z 18013KT 27/20 A2988 RMK A01 T02680199  RH  070%=      5-min Rain = 0
KKN1 201100Z 18013KT 27/20 A2988 RMK A01 T02670200  RH  071%=      5-min Rain = 0
KKN1 201105Z 18012KT 27/20 A2989 RMK A01 T02670201  RH  071%=      5-min Rain = 0
KKN1 201110Z 19012KT 27/20 A2989 RMK A01 T02660201  RH  072%=      5-min Rain = 0
KKN1 201115Z 19012KT 27/20 A2989 RMK A01 T02650201  RH  072%=      5-min Rain = 0
KKN1 201120Z 19012KT 27/20 A2989 RMK A01 T02650202  RH  072%=      5-min Rain = 0
KKN1 201125Z 18012KT 27/20 A2989 RMK A01 T02650202  RH  073%=      5-min Rain = 0
KKN1 201130Z 18011KT 26/20 A299 RMK A01 T02630202  RH  074%=      5-min Rain = 0
KKN1 201135Z 18011KT 26/20 A299 RMK A01 T02620203  RH  074%=      5-min Rain = 0
KKN1 201140Z 18011KT 26/20 A299 RMK A01 T02610203  RH  074%=      5-min Rain = 0
KKN1 201145Z 18010KT 26/20 A299 RMK A01 T02610203  RH  075%=      5-min Rain = 0
KKN1 201150Z 18010KT 26/20 A299 RMK A01 T02600203  RH  075%=      5-min Rain = 0
KKN1 201155Z 18010KT 26/20 A299 RMK A01 T02600204  RH  075%=      5-min Rain = 0
KKN1 201200Z 18010KT 26/20 A299 RMK A01 T02590204  RH  076%=      5-min Rain = 0
KKN1 201205Z 18009KT 26/20 A299 RMK A01 T02590204  RH  076%=      5-min Rain = 0
KKN1 201210Z 18010KT 26/20 A299 RMK A01 T02590204  RH  076%=      5-min Rain = 0
KKN1 201215Z 17009KT 26/21 A299 RMK A01 T02580205  RH  077%=      5-min Rain = 0
KKN1 201220Z 17009KT 26/21 A299 RMK A01 T02570205  RH  077%=      5-min Rain = 0
KKN1 201225Z 18009KT 26/21 A299 RMK A01 T02590205  RH  077%=      5-min Rain = 0
KKN1 201230Z 18008KT 26/21 A299 RMK A01 T02600206  RH  077%=      5-min Rain = 0
KKN1 201235Z 18008KT 26/21 A2991 RMK A01 T02610207  RH  077%=      5-min Rain = 0
KKN1 201240Z 18008KT 26/21 A2991 RMK A01 T02630207  RH  076%=      5-min Rain = 0
KKN1 201245Z 18009KT 27/21 A2991 RMK A01 T02650207  RH  075%=      5-min Rain = 0
KKN1 201250Z 18009KT 27/21 A2991 RMK A01 T02670207  RH  074%=      5-min Rain = 0
KKN1 201255Z 18010KT 27/21 A2991 RMK A01 T02690208  RH  074%=      5-min Rain = 0
KKN1 201300Z 18011KT 27/21 A2991 RMK A01 T02700208  RH  073%=      5-min Rain = 0
KKN1 201305Z 18011KT 27/21 A2991 RMK A01 T02710208  RH  073%=      5-min Rain = 0
KKN1 201310Z 18010KT 27/21 A2992 RMK A01 T02730208  RH  072%=      5-min Rain = 0
KKN1 201315Z 19011KT 28/21 A2992 RMK A01 T02750209  RH  071%=      5-min Rain = 0
KKN1 201320Z 19011G16KT 28/21 A2992 RMK A01 T02770208  RH  070%=      5-min Rain = 0
KKN1 201325Z 19012KT 28/21 A2992 RMK A01 T02800208  RH  069%=      5-min Rain = 0
KKN1 201330Z 19012KT 28/21 A2992 RMK A01 T02800208  RH  069%=      5-min Rain = 0
KKN1 201335Z 19012G18KT 28/21 A2992 RMK A01 T02830207  RH  067%=      5-min Rain = 0
KKN1 201340Z 20014G20KT 28/21 A2992 RMK A01 T02830205  RH  066%=      5-min Rain = 0
KKN1 201345Z 19013G18KT 29/21 A2992 RMK A01 T02870206  RH  065%=      5-min Rain = 0
KKN1 201350Z 19014G19KT 29/20 A2992 RMK A01 T02880204  RH  064%=      5-min Rain = 0
KKN1 201355Z 18015KT 29/20 A2992 RMK A01 T02900203  RH  063%=      5-min Rain = 0
KKN1 201400Z 19015KT 29/20 A2992 RMK A01 T02900202  RH  063%=      5-min Rain = 0
KKN1 201405Z 19016KT 29/20 A2992 RMK A01 T02900202  RH  062%=      5-min Rain = 0
KKN1 201410Z 19016KT 29/20 A2991 RMK A01 T02930200  RH  061%=      5-min Rain = 0
KKN1 201415Z 20016KT 29/20 A2992 RMK A01 T02940199  RH  060%=      5-min Rain = 0
KKN1 201420Z 19016KT 30/20 A2992 RMK A01 T02970200  RH  059%=      5-min Rain = 0
KKN1 201425Z 19017G22KT 30/20 A2992 RMK A01 T02980199  RH  059%=      5-min Rain = 0
KKN1 201430Z 19018KT 30/20 A2992 RMK A01 T03000199  RH  058%=      5-min Rain = 0
KKN1 201435Z 19019G25KT 30/20 A2992 RMK A01 T03000198  RH  058%=      5-min Rain = 0
KKN1 201440Z 20017G22KT 30/20 A2992 RMK A01 T03010198  RH  057%=      5-min Rain = 0
KKN1 201445Z 19016KT 30/20 A2992 RMK A01 T03040198  RH  056%=      5-min Rain = 0
KKN1 201450Z 20016KT 31/20 A2992 RMK A01 T03070198  RH  055%=      5-min Rain = 0
KKN1 201455Z 20016KT 31/20 A2991 RMK A01 T03080198  RH  055%=      5-min Rain = 0
KKN1 201500Z 20017G22KT 31/20 A2991 RMK A01 T03110197  RH  054%=      5-min Rain = 0
KKN1 201505Z 20017KT 31/20 A2991 RMK A01 T03110197  RH  054%=      5-min Rain = 0
KKN1 201510Z 19015G20KT 31/20 A2991 RMK A01 T03130197  RH  053%=      5-min Rain = 0
KKN1 201515Z 20016G21KT 32/20 A2991 RMK A01 T03150196  RH  052%=      5-min Rain = 0
KKN1 201520Z 20017KT 32/20 A2991 RMK A01 T03160195  RH  052%=      5-min Rain = 0
KKN1 201525Z 20015G22KT 32/20 A2991 RMK A01 T03180195  RH  051%=      5-min Rain = 0
KKN1 201530Z 20015KT 32/20 A2991 RMK A01 T03200196  RH  050%=      5-min Rain = 0
KKN1 201535Z 20016KT 32/19 A2991 RMK A01 T03210194  RH  050%=      5-min Rain = 0
KKN1 201540Z 20015KT 32/19 A2991 RMK A01 T03220194  RH  049%=      5-min Rain = 0
KKN1 201545Z 19014G21KT 33/20 A2991 RMK A01 T03280195  RH  048%=      5-min Rain = 0
KKN1 201550Z 20014KT 33/19 A299 RMK A01 T03280194  RH  048%=      5-min Rain = 0
KKN1 201555Z 19015KT 33/19 A2991 RMK A01 T03290193  RH  047%=      5-min Rain = 0
KKN1 201600Z 20015KT 33/19 A2991 RMK A01 T03300193  RH  047%=      5-min Rain = 0
KKN1 201605Z 19014G20KT 33/19 A299 RMK A01 T03310193  RH  047%=      5-min Rain = 0
KKN1 201610Z 19014G19KT 34/19 A299 RMK A01 T03350193  RH  046%=      5-min Rain = 0
KKN1 201615Z 19016G21KT 34/19 A299 RMK A01 T03360192  RH  045%=      5-min Rain = 0
KKN1 201620Z 20015G20KT 34/19 A299 RMK A01 T03380192  RH  045%=      5-min Rain = 0
KKN1 201625Z 20014KT 34/19 A299 RMK A01 T03380192  RH  045%=      5-min Rain = 0
KKN1 201630Z 19016KT 34/19 A299 RMK A01 T03390190  RH  044%=      5-min Rain = 0
KKN1 201635Z 18014KT 34/19 A299 RMK A01 T03430194  RH  044%=      5-min Rain = 0
KKN1 201640Z 19013G18KT 35/19 A299 RMK A01 T03460193  RH  043%=      5-min Rain = 0
KKN1 201645Z 18014KT 35/19 A299 RMK A01 T03480191  RH  042%=      5-min Rain = 0
KKN1 201650Z 19015G20KT 35/19 A299 RMK A01 T03520192  RH  041%=      5-min Rain = 0
KKN1 201655Z 18015G22KT 35/19 A2989 RMK A01 T03490188  RH  041%=      5-min Rain = 0
KKN1 201700Z 18016KT 35/19 A2989 RMK A01 T03490187  RH  041%=      5-min Rain = 0
KKN1 201705Z 19014KT 35/19 A2989 RMK A01 T03480188  RH  041%=      5-min Rain = 0
KKN1 201710Z 18014G19KT 35/19 A2989 RMK A01 T03540188  RH  040%=      5-min Rain = 0
KKN1 201715Z 18016G21KT 36/18 A2989 RMK A01 T03550184  RH  039%=      5-min Rain = 0
KKN1 201720Z 18016G21KT 36/18 A2989 RMK A01 T03560183  RH  038%=      5-min Rain = 0
KKN1 201725Z 17016G21KT 36/18 A2989 RMK A01 T03600183  RH  037%=      5-min Rain = 0
KKN1 201730Z 19014G20KT 36/18 A2989 RMK A01 T03590183  RH  037%=      5-min Rain = 0
KKN1 201735Z 18015G22KT 36/18 A2989 RMK A01 T03610183  RH  037%=      5-min Rain = 0
KKN1 201740Z 18016G22KT 36/18 A2989 RMK A01 T03640180  RH  036%=      5-min Rain = 0
KKN1 201745Z 17015G20KT 37/18 A2989 RMK A01 T03650176  RH  035%=      5-min Rain = 0
KKN1 201750Z 17016G22KT 37/18 A2989 RMK A01 T03680178  RH  035%=      5-min Rain = 0
KKN1 201755Z 18016G28KT 37/18 A2989 RMK A01 T03690177  RH  034%=      5-min Rain = 0
KKN1 201800Z 18017G22KT 37/18 A2989 RMK A01 T03700176  RH  034%=      5-min Rain = 0
KKN1 201805Z 18018KT 37/17 A2989 RMK A01 T03700171  RH  033%=      5-min Rain = 0
KKN1 201810Z 18015G21KT 37/17 A2989 RMK A01 T03690174  RH  033%=      5-min Rain = 0
KKN1 201815Z 18017G22KT 37/17 A2988 RMK A01 T03730173  RH  032%=      5-min Rain = 0
KKN1 201820Z 17015G21KT 37/17 A2988 RMK A01 T03700166  RH  032%=      5-min Rain = 0
KKN1 201825Z 17015G20KT 37/17 A2988 RMK A01 T03710170  RH  032%=      5-min Rain = 0
KKN1 201830Z 19018G23KT 38/17 A2988 RMK A01 T03750169  RH  031%=      5-min Rain = 0
KKN1 201835Z 18018G23KT 38/16 A2987 RMK A01 T03760164  RH  030%=      5-min Rain = 0
KKN1 201840Z 17016G22KT 38/17 A2987 RMK A01 T03790167  RH  030%=      5-min Rain = 0
KKN1 201845Z 18015G20KT 38/16 A2987 RMK A01 T03820160  RH  028%=      5-min Rain = 0
KKN1 201850Z 18017KT 38/17 A2987 RMK A01 T03800167  RH  030%=      5-min Rain = 0
KKN1 201855Z 17017G22KT 38/17 A2986 RMK A01 T03790168  RH  030%=      5-min Rain = 0
KKN1 201900Z 18018G24KT 38/17 A2986 RMK A01 T03800167  RH  030%=      5-min Rain = 0
KKN1 201905Z 18015G20KT 38/17 A2986 RMK A01 T03820169  RH  030%=      5-min Rain = 0
KKN1 201910Z 18016G21KT 39/17 A2986 RMK A01 T03880170  RH  029%=      5-min Rain = 0
KKN1 201915Z 18018G25KT 38/17 A2986 RMK A01 T03840172  RH  030%=      5-min Rain = 0
KKN1 201920Z 18017G23KT 38/17 A2986 RMK A01 T03820166  RH  030%=      5-min Rain = 0
KKN1 201925Z 17016G23KT 39/17 A2985 RMK A01 T03860170  RH  030%=      5-min Rain = 0
KKN1 201930Z 18016G21KT 39/17 A2985 RMK A01 T03890165  RH  028%=      5-min Rain = 0
KKN1 201935Z 17015G20KT 39/17 A2985 RMK A01 T03880171  RH  030%=      5-min Rain = 0
KKN1 201940Z 18016G21KT 39/17 A2985 RMK A01 T03860168  RH  029%=      5-min Rain = 0
KKN1 201945Z 17016G22KT 39/17 A2984 RMK A01 T03880171  RH  030%=      5-min Rain = 0
KKN1 201950Z 17016KT 39/17 A2984 RMK A01 T03880171  RH  030%=      5-min Rain = 0
KKN1 201955Z 18016G21KT 39/17 A2984 RMK A01 T03900170  RH  029%=      5-min Rain = 0
KKN1 202000Z 16016G22KT 39/17 A2984 RMK A01 T03920165  RH  028%=      5-min Rain = 0
KKN1 202005Z 17015G22KT 39/17 A2984 RMK A01 T03910168  RH  029%=      5-min Rain = 0
KKN1 202010Z 16018G24KT 39/17 A2984 RMK A01 T03930167  RH  028%=      5-min Rain = 0
KKN1 202015Z 16015KT 39/17 A2984 RMK A01 T03930168  RH  028%=      5-min Rain = 0
KKN1 202020Z 16017G25KT 39/17 A2984 RMK A01 T03930170  RH  029%=      5-min Rain = 0
KKN1 202025Z 18016G24KT 39/17 A2983 RMK A01 T03910171  RH  029%=      5-min Rain = 0
KKN1 202030Z 16015G23KT 39/17 A2983 RMK A01 T03910167  RH  028%=      5-min Rain = 0
KKN1 202035Z 15017G22KT 40/17 A2983 RMK A01 T03950167  RH  028%=      5-min Rain = 0
KKN1 202040Z 17015KT 40/17 A2983 RMK A01 T03980169  RH  028%=      5-min Rain = 0
KKN1 202045Z 17015G21KT 39/17 A2983 RMK A01 T03930166  RH  028%=      5-min Rain = 0
KKN1 202050Z 16018G23KT 39/17 A2983 RMK A01 T03910166  RH  028%=      5-min Rain = 0
KKN1 202055Z 17016G21KT 39/17 A2983 RMK A01 T03920166  RH  028%=      5-min Rain = 0
KKN1 202100Z 17016G21KT 39/16 A2983 RMK A01 T03930162  RH  027%=      5-min Rain = 0
KKN1 202105Z 18015G22KT 39/17 A2983 RMK A01 T03930166  RH  028%=      5-min Rain = 0
KKN1 202110Z 17015G21KT 39/17 A2983 RMK A01 T03920168  RH  028%=      5-min Rain = 0
KKN1 202115Z 18015G20KT 39/17 A2982 RMK A01 T03940169  RH  028%=      5-min Rain = 0
KKN1 202120Z 17015G21KT 40/17 A2982 RMK A01 T03970168  RH  028%=      5-min Rain = 0
KKN1 202125Z 18015G21KT 39/16 A2982 RMK A01 T03940164  RH  027%=      5-min Rain = 0
KKN1 202130Z 16014G19KT 40/17 A2982 RMK A01 T03960166  RH  027%=      5-min Rain = 0
KKN1 202135Z 16017G22KT 40/17 A2982 RMK A01 T03980168  RH  028%=      5-min Rain = 0
KKN1 202140Z 17016G21KT 40/17 A2982 RMK A01 T03950168  RH  028%=      5-min Rain = 0
KKN1 202145Z 16015G21KT 39/17 A2982 RMK A01 T03920166  RH  028%=      5-min Rain = 0
KKN1 202150Z 16014KT 39/17 A2982 RMK A01 T03920165  RH  028%=      5-min Rain = 0
KKN1 202155Z 17015KT 40/16 A2981 RMK A01 T03960164  RH  027%=      5-min Rain = 0
KKN1 202200Z 17014G23KT 40/16 A2981 RMK A01 T03950164  RH  027%=      5-min Rain = 0
KKN1 202205Z 18014KT 40/16 A2981 RMK A01 T03970163  RH  027%=      5-min Rain = 0
KKN1 202210Z 17017G24KT 40/16 A2981 RMK A01 T03970164  RH  027%=      5-min Rain = 0
KKN1 202215Z 16017G23KT 39/16 A298 RMK A01 T03940164  RH  027%=      5-min Rain = 0
KKN1 202220Z 17014G22KT 40/16 A298 RMK A01 T03960164  RH  027%=      5-min Rain = 0
KKN1 202225Z 18015G21KT 40/16 A298 RMK A01 T03970164  RH  027%=      5-min Rain = 0
KKN1 202230Z 16016G21KT 39/16 A298 RMK A01 T03940164  RH  027%=      5-min Rain = 0
KKN1 202235Z 16016G22KT 40/16 A298 RMK A01 T03960163  RH  027%=      5-min Rain = 0
KKN1 202240Z 18016G22KT 40/16 A298 RMK A01 T03950161  RH  027%=      5-min Rain = 0
KKN1 202245Z 17017G22KT 40/16 A298 RMK A01 T03960163  RH  027%=      5-min Rain = 0
KKN1 202250Z 17017G24KT 39/16 A298 RMK A01 T03930162  RH  027%=      5-min Rain = 0
KKN1 202255Z 16017G22KT 39/16 A2979 RMK A01 T03930163  RH  027%=      5-min Rain = 0
KKN1 202300Z 17017G23KT 39/16 A2979 RMK A01 T03920160  RH  027%=      5-min Rain = 0
KKN1 202305Z 18017G23KT 39/16 A2979 RMK A01 T03910160  RH  027%=      5-min Rain = 0
KKN1 202310Z 17016G22KT 39/16 A2979 RMK A01 T03920160  RH  027%=      5-min Rain = 0
KKN1 202315Z 17017G22KT 39/16 A2979 RMK A01 T03920161  RH  027%=      5-min Rain = 0
KKN1 202320Z 17017G22KT 39/16 A2979 RMK A01 T03920161  RH  027%=      5-min Rain = 0
KKN1 202325Z 16017G24KT 39/16 A2979 RMK A01 T03910160  RH  027%=      5-min Rain = 0
KKN1 202330Z 16018KT 39/16 A2979 RMK A01 T03900160  RH  027%=      5-min Rain = 0
KKN1 202335Z 16018KT 39/16 A2979 RMK A01 T03870161  RH  028%=      5-min Rain = 0
KKN1 202340Z 16017KT 39/16 A2979 RMK A01 T03890162  RH  028%=      5-min Rain = 0
KKN1 202345Z 16017G22KT 39/16 A2979 RMK A01 T03890162  RH  028%=      5-min Rain = 0
KKN1 202350Z 16016G22KT 39/16 A2979 RMK A01 T03870164  RH  028%=      5-min Rain = 0
KKN1 202355Z 16017G23KT 38/17 A2979 RMK A01 T03840167  RH  029%=      5-min Rain = 0
KKN1 210000Z 16017KT 38/17 A2979 RMK A01 T03840167  RH  030%=      5-min Rain = 0
KKN1 210005Z 15019KT 38/17 A2979 RMK A01 T03820167  RH  030%=      5-min Rain = 0
KKN1 210010Z 15018KT 38/17 A2979 RMK A01 T03790167  RH  030%=      5-min Rain = 0
KKN1 210015Z 15018KT 38/16 A2979 RMK A01 T03790164  RH  030%=      5-min Rain = 0
KKN1 210020Z 16018G23KT 38/16 A2979 RMK A01 T03790164  RH  030%=      5-min Rain = 0
KKN1 210025Z 16016G23KT 38/17 A2979 RMK A01 T03770165  RH  030%=      5-min Rain = 0
KKN1 210030Z 16015G20KT 38/17 A2979 RMK A01 T03770166  RH  030%=      5-min Rain = 0
KKN1 210035Z 16016G22KT 38/16 A2979 RMK A01 T03750164  RH  030%=      5-min Rain = 0
KKN1 210040Z 16018G23KT 37/16 A2979 RMK A01 T03740163  RH  030%=      5-min Rain = 0
KKN1 210045Z 15016G21KT 37/16 A298 RMK A01 T03730162  RH  030%=      5-min Rain = 0
KKN1 210050Z 15018G25KT 37/16 A298 RMK A01 T03710162  RH  030%=      5-min Rain = 0
KKN1 210055Z 15016G21KT 37/16 A298 RMK A01 T03690162  RH  031%=      5-min Rain = 0
KKN1 210100Z 15016KT 37/16 A298 RMK A01 T03680163  RH  031%=      5-min Rain = 0
KKN1 210105Z 15014G19KT 37/17 A298 RMK A01 T03650165  RH  032%=      5-min Rain = 0
KKN1 210110Z 15014G19KT 36/17 A298 RMK A01 T03630165  RH  032%=      5-min Rain = 0
KKN1 210115Z 15015KT 36/16 A298 RMK A01 T03620164  RH  032%=      5-min Rain = 0
KKN1 210120Z 15013KT 36/16 A298 RMK A01 T03590164  RH  033%=      5-min Rain = 0
KKN1 210125Z 15014KT 36/16 A298 RMK A01 T03570164  RH  034%=      5-min Rain = 0
KKN1 210130Z 14013KT 35/17 A298 RMK A01 T03540166  RH  034%=      5-min Rain = 0
KKN1 210135Z 14015G20KT 35/17 A298 RMK A01 T03530166  RH  035%=      5-min Rain = 0
KKN1 210140Z 14012KT 35/17 A2981 RMK A01 T03500167  RH  036%=      5-min Rain = 0
KKN1 210145Z 14013KT 35/17 A2981 RMK A01 T03470168  RH  036%=      5-min Rain = 0
KKN1 210150Z 14013KT 35/17 A2981 RMK A01 T03450168  RH  037%=      5-min Rain = 0
KKN1 210155Z 14013G18KT 34/17 A2981 RMK A01 T03430168  RH  037%=      5-min Rain = 0
KKN1 210200Z 14014KT 34/17 A2981 RMK A01 T03420169  RH  038%=      5-min Rain = 0
KKN1 210205Z 14015KT 34/17 A2981 RMK A01 T03410169  RH  038%=      5-min Rain = 0
KKN1 210210Z 14013KT 34/17 A2981 RMK A01 T03390169  RH  038%=      5-min Rain = 0
KKN1 210215Z 14013KT 34/17 A2981 RMK A01 T03370169  RH  039%=      5-min Rain = 0
KKN1 210220Z 14013KT 34/17 A2981 RMK A01 T03360169  RH  039%=      5-min Rain = 0
KKN1 210225Z 13012KT 33/17 A2981 RMK A01 T03330169  RH  039%=      5-min Rain = 0
KKN1 210230Z 13011KT 33/17 A2982 RMK A01 T03310168  RH  040%=      5-min Rain = 0
KKN1 210235Z 13012KT 33/17 A2982 RMK A01 T03280170  RH  041%=      5-min Rain = 0
KKN1 210240Z 13013KT 33/17 A2982 RMK A01 T03260172  RH  042%=      5-min Rain = 0
KKN1 210245Z 13014KT 33/17 A2982 RMK A01 T03250173  RH  042%=      5-min Rain = 0
KKN1 210250Z 13013G18KT 32/17 A2982 RMK A01 T03240174  RH  043%=      5-min Rain = 0
KKN1 210255Z 13014KT 32/17 A2983 RMK A01 T03230174  RH  043%=      5-min Rain = 0
KKN1 210300Z 13014KT 32/18 A2983 RMK A01 T03220175  RH  044%=      5-min Rain = 0
KKN1 210305Z 13013KT 32/18 A2983 RMK A01 T03210176  RH  044%=      5-min Rain = 0
KKN1 210310Z 14014G19KT 32/18 A2983 RMK A01 T03200176  RH  044%=      5-min Rain = 0
KKN1 210315Z 14014KT 32/18 A2983 RMK A01 T03190176  RH  045%=      5-min Rain = 0
KKN1 210320Z 14015G20KT 32/18 A2983 RMK A01 T03190175  RH  044%=      5-min Rain = 0
KKN1 210325Z 14015KT 32/17 A2983 RMK A01 T03190174  RH  044%=      5-min Rain = 0
KKN1 210330Z 14014KT 32/17 A2983 RMK A01 T03180174  RH  044%=      5-min Rain = 0
KKN1 210335Z 14015KT 32/17 A2984 RMK A01 T03170174  RH  045%=      5-min Rain = 0
KKN1 210340Z 14015KT 32/17 A2984 RMK A01 T03160174  RH  045%=      5-min Rain = 0
KKN1 210345Z 14015KT 32/17 A2984 RMK A01 T03150174  RH  045%=      5-min Rain = 0
KKN1 210350Z 14013G18KT 31/17 A2984 RMK A01 T03130173  RH  045%=      5-min Rain = 0
KKN1 210355Z 15014KT 31/17 A2984 RMK A01 T03120173  RH  045%=      5-min Rain = 0
KKN1 210400Z 15015KT 31/17 A2984 RMK A01 T03130172  RH  045%=      5-min Rain = 0
KKN1 210405Z 15014KT 31/17 A2985 RMK A01 T03120171  RH  045%=      5-min Rain = 0
KKN1 210410Z 14015KT 31/17 A2985 RMK A01 T03120171  RH  045%=      5-min Rain = 0
KKN1 210415Z 15013KT 31/17 A2985 RMK A01 T03110170  RH  045%=      5-min Rain = 0
KKN1 210420Z 15015KT 31/17 A2985 RMK A01 T03100170  RH  045%=      5-min Rain = 0
KKN1 210425Z 15014G19KT 31/17 A2985 RMK A01 T03100170  RH  045%=      5-min Rain = 0
KKN1 210430Z 15014KT 31/17 A2985 RMK A01 T03090169  RH  045%=      5-min Rain = 0
KKN1 210435Z 15014KT 31/17 A2985 RMK A01 T03080169  RH  046%=      5-min Rain = 0
KKN1 210440Z 15014KT 31/17 A2985 RMK A01 T03070169  RH  046%=      5-min Rain = 0
KKN1 210445Z 15014KT 31/17 A2985 RMK A01 T03060169  RH  046%=      5-min Rain = 0
KKN1 210450Z 15014KT 31/17 A2986 RMK A01 T03050168  RH  046%=      5-min Rain = 0
KKN1 210455Z 15013KT 31/17 A2986 RMK A01 T03050168  RH  046%=      5-min Rain = 0

Page generated in 0.0095 seconds.